sensor_id;sensor_type;location;lat;lon;timestamp;P1;durP1;ratioP1;P2;durP2;ratioP2
7783;SDS011;19359;51.402;6.778;2023-08-08T00:01:07;742.88;;;345.95;;
7783;SDS011;19359;51.402;6.778;2023-08-08T00:03:34;730.30;;;343.08;;
7783;SDS011;19359;51.402;6.778;2023-08-08T00:06:01;726.38;;;328.95;;
7783;SDS011;19359;51.402;6.778;2023-08-08T00:08:28;754.38;;;344.40;;
7783;SDS011;19359;51.402;6.778;2023-08-08T00:10:56;736.65;;;334.83;;
7783;SDS011;19359;51.402;6.778;2023-08-08T00:13:23;700.30;;;331.05;;
7783;SDS011;19359;51.402;6.778;2023-08-08T00:15:50;737.13;;;326.20;;
7783;SDS011;19359;51.402;6.778;2023-08-08T00:18:16;739.42;;;338.83;;
7783;SDS011;19359;51.402;6.778;2023-08-08T00:20:44;717.35;;;329.63;;
7783;SDS011;19359;51.402;6.778;2023-08-08T00:23:10;704.13;;;327.52;;
7783;SDS011;19359;51.402;6.778;2023-08-08T00:25:37;715.95;;;321.92;;
7783;SDS011;19359;51.402;6.778;2023-08-08T00:28:06;728.95;;;321.52;;
7783;SDS011;19359;51.402;6.778;2023-08-08T00:30:32;706.67;;;313.20;;
7783;SDS011;19359;51.402;6.778;2023-08-08T00:32:59;665.90;;;318.58;;
7783;SDS011;19359;51.402;6.778;2023-08-08T00:35:26;657.70;;;303.77;;
7783;SDS011;19359;51.402;6.778;2023-08-08T00:37:53;668.20;;;309.55;;
7783;SDS011;19359;51.402;6.778;2023-08-08T00:40:19;679.65;;;310.75;;
7783;SDS011;19359;51.402;6.778;2023-08-08T00:42:46;646.30;;;316.45;;
7783;SDS011;19359;51.402;6.778;2023-08-08T00:45:14;656.03;;;322.92;;
7783;SDS011;19359;51.402;6.778;2023-08-08T00:47:41;636.35;;;306.85;;
7783;SDS011;19359;51.402;6.778;2023-08-08T00:50:08;616.08;;;307.17;;
7783;SDS011;19359;51.402;6.778;2023-08-08T00:52:36;619.90;;;305.23;;
7783;SDS011;19359;51.402;6.778;2023-08-08T00:55:05;598.08;;;306.42;;
7783;SDS011;19359;51.402;6.778;2023-08-08T00:57:33;613.45;;;300.52;;
7783;SDS011;19359;51.402;6.778;2023-08-08T01:00:03;592.92;;;305.35;;
7783;SDS011;19359;51.402;6.778;2023-08-08T01:02:32;619.08;;;314.67;;
7783;SDS011;19359;51.402;6.778;2023-08-08T01:04:59;604.13;;;303.30;;
7783;SDS011;19359;51.402;6.778;2023-08-08T01:07:28;613.13;;;309.83;;
7783;SDS011;19359;51.402;6.778;2023-08-08T01:10:00;595.45;;;307.60;;
7783;SDS011;19359;51.402;6.778;2023-08-08T01:12:32;604.35;;;307.83;;
7783;SDS011;19359;51.402;6.778;2023-08-08T01:15:01;613.70;;;312.10;;
7783;SDS011;19359;51.402;6.778;2023-08-08T01:17:28;643.42;;;318.00;;
7783;SDS011;19359;51.402;6.778;2023-08-08T01:19:56;652.08;;;320.23;;
7783;SDS011;19359;51.402;6.778;2023-08-08T01:22:24;652.38;;;330.77;;
7783;SDS011;19359;51.402;6.778;2023-08-08T01:24:57;608.53;;;323.55;;
7783;SDS011;19359;51.402;6.778;2023-08-08T01:27:25;603.72;;;322.20;;
7783;SDS011;19359;51.402;6.778;2023-08-08T01:29:52;596.97;;;315.55;;
7783;SDS011;19359;51.402;6.778;2023-08-08T01:32:19;599.63;;;304.38;;
7783;SDS011;19359;51.402;6.778;2023-08-08T01:34:46;605.83;;;318.38;;
7783;SDS011;19359;51.402;6.778;2023-08-08T01:37:14;589.58;;;319.73;;
7783;SDS011;19359;51.402;6.778;2023-08-08T01:39:46;585.50;;;311.50;;
7783;SDS011;19359;51.402;6.778;2023-08-08T01:42:16;589.55;;;303.45;;
7783;SDS011;19359;51.402;6.778;2023-08-08T01:44:45;579.97;;;305.98;;
7783;SDS011;19359;51.402;6.778;2023-08-08T01:47:12;586.63;;;317.67;;
7783;SDS011;19359;51.402;6.778;2023-08-08T01:49:40;591.95;;;317.20;;
7783;SDS011;19359;51.402;6.778;2023-08-08T01:52:06;593.72;;;317.30;;
7783;SDS011;19359;51.402;6.778;2023-08-08T01:54:33;581.33;;;317.48;;
7783;SDS011;19359;51.402;6.778;2023-08-08T01:57:00;591.05;;;316.67;;
7783;SDS011;19359;51.402;6.778;2023-08-08T01:59:28;611.50;;;320.13;;
7783;SDS011;19359;51.402;6.778;2023-08-08T02:01:55;570.63;;;302.27;;
7783;SDS011;19359;51.402;6.778;2023-08-08T02:04:22;605.10;;;327.58;;
7783;SDS011;19359;51.402;6.778;2023-08-08T02:06:48;589.17;;;309.17;;
7783;SDS011;19359;51.402;6.778;2023-08-08T02:09:15;579.15;;;315.75;;
7783;SDS011;19359;51.402;6.778;2023-08-08T02:11:42;576.65;;;304.02;;
7783;SDS011;19359;51.402;6.778;2023-08-08T02:14:09;577.22;;;312.20;;
7783;SDS011;19359;51.402;6.778;2023-08-08T02:16:37;568.67;;;305.27;;
7783;SDS011;19359;51.402;6.778;2023-08-08T02:19:04;602.05;;;319.00;;
7783;SDS011;19359;51.402;6.778;2023-08-08T02:21:31;589.80;;;318.98;;
7783;SDS011;19359;51.402;6.778;2023-08-08T02:23:58;607.17;;;325.88;;
7783;SDS011;19359;51.402;6.778;2023-08-08T02:26:24;600.45;;;316.40;;
7783;SDS011;19359;51.402;6.778;2023-08-08T02:28:51;622.63;;;326.27;;
7783;SDS011;19359;51.402;6.778;2023-08-08T02:31:18;601.78;;;319.25;;
7783;SDS011;19359;51.402;6.778;2023-08-08T02:33:47;625.30;;;324.35;;
7783;SDS011;19359;51.402;6.778;2023-08-08T02:36:14;604.30;;;325.23;;
7783;SDS011;19359;51.402;6.778;2023-08-08T02:38:41;608.17;;;316.55;;
7783;SDS011;19359;51.402;6.778;2023-08-08T02:41:08;624.08;;;317.55;;
7783;SDS011;19359;51.402;6.778;2023-08-08T02:43:34;621.83;;;301.90;;
7783;SDS011;19359;51.402;6.778;2023-08-08T02:46:01;598.85;;;314.08;;
7783;SDS011;19359;51.402;6.778;2023-08-08T02:48:28;632.00;;;313.67;;
7783;SDS011;19359;51.402;6.778;2023-08-08T02:50:57;683.40;;;322.88;;
7783;SDS011;19359;51.402;6.778;2023-08-08T02:53:24;641.10;;;316.23;;
7783;SDS011;19359;51.402;6.778;2023-08-08T02:55:51;672.13;;;324.02;;
7783;SDS011;19359;51.402;6.778;2023-08-08T02:58:17;634.53;;;322.35;;
7783;SDS011;19359;51.402;6.778;2023-08-08T03:00:44;615.38;;;316.42;;
7783;SDS011;19359;51.402;6.778;2023-08-08T03:03:11;575.85;;;319.00;;
7783;SDS011;19359;51.402;6.778;2023-08-08T03:05:38;600.40;;;324.85;;
7783;SDS011;19359;51.402;6.778;2023-08-08T03:08:06;635.75;;;316.70;;
7783;SDS011;19359;51.402;6.778;2023-08-08T03:10:33;646.40;;;316.60;;
7783;SDS011;19359;51.402;6.778;2023-08-08T03:12:59;673.38;;;317.35;;
7783;SDS011;19359;51.402;6.778;2023-08-08T03:15:26;583.88;;;315.27;;
7783;SDS011;19359;51.402;6.778;2023-08-08T03:17:53;534.28;;;300.08;;
7783;SDS011;19359;51.402;6.778;2023-08-08T03:20:20;529.75;;;302.30;;
7783;SDS011;19359;51.402;6.778;2023-08-08T03:22:47;541.58;;;299.13;;
7783;SDS011;19359;51.402;6.778;2023-08-08T03:25:15;555.60;;;306.80;;
7783;SDS011;19359;51.402;6.778;2023-08-08T03:27:42;545.47;;;305.70;;
7783;SDS011;19359;51.402;6.778;2023-08-08T03:30:10;569.92;;;310.55;;
7783;SDS011;19359;51.402;6.778;2023-08-08T03:32:37;585.42;;;307.05;;
7783;SDS011;19359;51.402;6.778;2023-08-08T03:35:05;631.33;;;310.40;;
7783;SDS011;19359;51.402;6.778;2023-08-08T03:37:33;642.80;;;314.90;;
7783;SDS011;19359;51.402;6.778;2023-08-08T03:39:59;643.65;;;305.15;;
7783;SDS011;19359;51.402;6.778;2023-08-08T03:42:28;658.28;;;307.15;;
7783;SDS011;19359;51.402;6.778;2023-08-08T03:44:54;645.63;;;302.50;;
7783;SDS011;19359;51.402;6.778;2023-08-08T03:47:21;636.70;;;304.35;;
7783;SDS011;19359;51.402;6.778;2023-08-08T03:49:48;640.20;;;302.70;;
7783;SDS011;19359;51.402;6.778;2023-08-08T03:52:15;639.92;;;306.85;;
7783;SDS011;19359;51.402;6.778;2023-08-08T03:54:42;599.33;;;288.63;;
7783;SDS011;19359;51.402;6.778;2023-08-08T03:57:09;701.65;;;301.90;;
7783;SDS011;19359;51.402;6.778;2023-08-08T03:59:37;694.38;;;296.42;;
7783;SDS011;19359;51.402;6.778;2023-08-08T04:02:04;694.00;;;288.42;;
7783;SDS011;19359;51.402;6.778;2023-08-08T04:04:31;676.55;;;283.58;;
7783;SDS011;19359;51.402;6.778;2023-08-08T04:06:58;671.70;;;285.92;;
7783;SDS011;19359;51.402;6.778;2023-08-08T04:09:25;712.05;;;292.50;;
7783;SDS011;19359;51.402;6.778;2023-08-08T04:11:52;705.63;;;297.77;;
7783;SDS011;19359;51.402;6.778;2023-08-08T04:14:19;707.60;;;287.90;;
7783;SDS011;19359;51.402;6.778;2023-08-08T04:16:47;708.58;;;282.92;;
7783;SDS011;19359;51.402;6.778;2023-08-08T04:19:14;715.70;;;282.88;;
7783;SDS011;19359;51.402;6.778;2023-08-08T04:21:41;700.00;;;277.20;;
7783;SDS011;19359;51.402;6.778;2023-08-08T04:24:08;723.15;;;291.08;;
7783;SDS011;19359;51.402;6.778;2023-08-08T04:26:37;712.70;;;285.58;;
7783;SDS011;19359;51.402;6.778;2023-08-08T04:29:05;737.10;;;296.52;;
7783;SDS011;19359;51.402;6.778;2023-08-08T04:31:32;730.92;;;284.45;;
7783;SDS011;19359;51.402;6.778;2023-08-08T04:34:00;713.50;;;285.45;;
7783;SDS011;19359;51.402;6.778;2023-08-08T04:36:28;724.13;;;280.73;;
7783;SDS011;19359;51.402;6.778;2023-08-08T04:38:55;729.50;;;288.50;;
7783;SDS011;19359;51.402;6.778;2023-08-08T04:41:22;684.25;;;300.92;;
7783;SDS011;19359;51.402;6.778;2023-08-08T04:43:49;633.65;;;269.80;;
7783;SDS011;19359;51.402;6.778;2023-08-08T04:46:15;645.75;;;270.38;;
7783;SDS011;19359;51.402;6.778;2023-08-08T04:48:42;666.40;;;276.42;;
7783;SDS011;19359;51.402;6.778;2023-08-08T04:51:10;687.85;;;279.38;;
7783;SDS011;19359;51.402;6.778;2023-08-08T04:53:37;683.25;;;280.95;;
7783;SDS011;19359;51.402;6.778;2023-08-08T04:56:04;676.95;;;290.08;;
7783;SDS011;19359;51.402;6.778;2023-08-08T04:58:31;624.20;;;273.40;;
7783;SDS011;19359;51.402;6.778;2023-08-08T05:00:58;629.40;;;266.33;;
7783;SDS011;19359;51.402;6.778;2023-08-08T05:03:25;627.45;;;274.73;;
7783;SDS011;19359;51.402;6.778;2023-08-08T05:05:52;617.28;;;271.42;;
7783;SDS011;19359;51.402;6.778;2023-08-08T05:08:21;654.13;;;292.00;;
7783;SDS011;19359;51.402;6.778;2023-08-08T05:10:47;652.85;;;276.83;;
7783;SDS011;19359;51.402;6.778;2023-08-08T05:13:14;707.60;;;269.27;;
7783;SDS011;19359;51.402;6.778;2023-08-08T05:15:41;725.30;;;285.77;;
7783;SDS011;19359;51.402;6.778;2023-08-08T05:18:08;727.50;;;286.00;;
7783;SDS011;19359;51.402;6.778;2023-08-08T05:20:35;729.60;;;284.60;;
7783;SDS011;19359;51.402;6.778;2023-08-08T05:23:01;716.95;;;291.15;;
7783;SDS011;19359;51.402;6.778;2023-08-08T05:25:30;725.28;;;296.50;;
7783;SDS011;19359;51.402;6.778;2023-08-08T05:27:56;732.00;;;300.70;;
7783;SDS011;19359;51.402;6.778;2023-08-08T05:30:24;742.08;;;296.88;;
7783;SDS011;19359;51.402;6.778;2023-08-08T05:32:50;690.22;;;292.48;;
7783;SDS011;19359;51.402;6.778;2023-08-08T05:35:18;698.88;;;293.98;;
7783;SDS011;19359;51.402;6.778;2023-08-08T05:37:44;725.17;;;306.45;;
7783;SDS011;19359;51.402;6.778;2023-08-08T05:40:11;702.95;;;294.65;;
7783;SDS011;19359;51.402;6.778;2023-08-08T05:42:39;646.83;;;280.40;;
7783;SDS011;19359;51.402;6.778;2023-08-08T05:45:07;661.50;;;285.95;;
7783;SDS011;19359;51.402;6.778;2023-08-08T05:47:34;689.95;;;288.42;;
7783;SDS011;19359;51.402;6.778;2023-08-08T05:50:01;684.58;;;282.88;;
7783;SDS011;19359;51.402;6.778;2023-08-08T05:52:28;704.88;;;286.77;;
7783;SDS011;19359;51.402;6.778;2023-08-08T05:54:55;726.63;;;295.92;;
7783;SDS011;19359;51.402;6.778;2023-08-08T05:57:24;716.25;;;300.02;;
7783;SDS011;19359;51.402;6.778;2023-08-08T05:59:52;746.65;;;311.38;;
7783;SDS011;19359;51.402;6.778;2023-08-08T06:02:19;652.97;;;290.00;;
7783;SDS011;19359;51.402;6.778;2023-08-08T06:04:45;649.92;;;285.35;;
7783;SDS011;19359;51.402;6.778;2023-08-08T06:07:12;679.78;;;290.45;;
7783;SDS011;19359;51.402;6.778;2023-08-08T06:09:39;691.30;;;295.23;;
7783;SDS011;19359;51.402;6.778;2023-08-08T06:12:06;705.45;;;292.13;;
7783;SDS011;19359;51.402;6.778;2023-08-08T06:14:34;713.28;;;295.35;;
7783;SDS011;19359;51.402;6.778;2023-08-08T06:17:02;704.10;;;305.00;;
7783;SDS011;19359;51.402;6.778;2023-08-08T06:19:30;685.20;;;291.42;;
7783;SDS011;19359;51.402;6.778;2023-08-08T06:21:57;702.08;;;306.75;;
7783;SDS011;19359;51.402;6.778;2023-08-08T06:24:24;701.83;;;303.38;;
7783;SDS011;19359;51.402;6.778;2023-08-08T06:26:51;697.78;;;301.25;;
7783;SDS011;19359;51.402;6.778;2023-08-08T06:29:18;729.38;;;300.27;;
7783;SDS011;19359;51.402;6.778;2023-08-08T06:31:44;730.70;;;309.20;;
7783;SDS011;19359;51.402;6.778;2023-08-08T06:34:13;732.25;;;318.75;;
7783;SDS011;19359;51.402;6.778;2023-08-08T06:36:40;729.45;;;314.20;;
7783;SDS011;19359;51.402;6.778;2023-08-08T06:39:07;743.03;;;326.80;;
7783;SDS011;19359;51.402;6.778;2023-08-08T06:41:36;734.30;;;324.02;;
7783;SDS011;19359;51.402;6.778;2023-08-08T06:44:03;704.45;;;317.77;;
7783;SDS011;19359;51.402;6.778;2023-08-08T06:46:30;704.65;;;321.77;;
7783;SDS011;19359;51.402;6.778;2023-08-08T06:48:57;700.67;;;328.15;;
7783;SDS011;19359;51.402;6.778;2023-08-08T06:51:27;717.72;;;330.83;;
7783;SDS011;19359;51.402;6.778;2023-08-08T06:53:54;728.03;;;340.33;;
7783;SDS011;19359;51.402;6.778;2023-08-08T06:56:21;728.47;;;325.08;;
7783;SDS011;19359;51.402;6.778;2023-08-08T06:58:48;735.70;;;333.60;;
7783;SDS011;19359;51.402;6.778;2023-08-08T07:01:15;732.95;;;341.42;;
7783;SDS011;19359;51.402;6.778;2023-08-08T07:03:42;759.63;;;356.38;;
7783;SDS011;19359;51.402;6.778;2023-08-08T07:06:10;762.28;;;358.92;;
7783;SDS011;19359;51.402;6.778;2023-08-08T07:08:38;749.50;;;359.95;;
7783;SDS011;19359;51.402;6.778;2023-08-08T07:11:05;727.53;;;354.25;;
7783;SDS011;19359;51.402;6.778;2023-08-08T07:13:32;729.00;;;363.15;;
7783;SDS011;19359;51.402;6.778;2023-08-08T07:15:59;755.75;;;384.13;;
7783;SDS011;19359;51.402;6.778;2023-08-08T07:18:26;740.83;;;373.17;;
7783;SDS011;19359;51.402;6.778;2023-08-08T07:20:53;743.88;;;384.55;;
7783;SDS011;19359;51.402;6.778;2023-08-08T07:23:21;758.22;;;373.33;;
7783;SDS011;19359;51.402;6.778;2023-08-08T07:25:50;770.60;;;394.42;;
7783;SDS011;19359;51.402;6.778;2023-08-08T07:28:17;777.63;;;395.48;;
7783;SDS011;19359;51.402;6.778;2023-08-08T07:30:44;785.80;;;407.40;;
7783;SDS011;19359;51.402;6.778;2023-08-08T07:33:11;776.65;;;405.73;;
7783;SDS011;19359;51.402;6.778;2023-08-08T07:35:39;789.40;;;407.80;;
7783;SDS011;19359;51.402;6.778;2023-08-08T07:38:06;787.83;;;411.35;;
7783;SDS011;19359;51.402;6.778;2023-08-08T07:40:33;793.35;;;418.17;;
7783;SDS011;19359;51.402;6.778;2023-08-08T07:43:01;777.72;;;416.70;;
7783;SDS011;19359;51.402;6.778;2023-08-08T07:45:29;780.92;;;411.75;;
7783;SDS011;19359;51.402;6.778;2023-08-08T07:47:56;776.28;;;406.33;;
7783;SDS011;19359;51.402;6.778;2023-08-08T07:50:23;794.83;;;421.52;;
7783;SDS011;19359;51.402;6.778;2023-08-08T07:52:50;771.10;;;406.42;;
7783;SDS011;19359;51.402;6.778;2023-08-08T07:55:17;790.00;;;419.65;;
7783;SDS011;19359;51.402;6.778;2023-08-08T07:57:44;787.90;;;427.25;;
7783;SDS011;19359;51.402;6.778;2023-08-08T08:00:13;793.13;;;431.85;;
7783;SDS011;19359;51.402;6.778;2023-08-08T08:02:43;785.25;;;429.98;;
7783;SDS011;19359;51.402;6.778;2023-08-08T08:05:11;785.78;;;428.50;;
7783;SDS011;19359;51.402;6.778;2023-08-08T08:07:39;788.60;;;435.27;;
7783;SDS011;19359;51.402;6.778;2023-08-08T08:10:06;791.53;;;437.73;;
7783;SDS011;19359;51.402;6.778;2023-08-08T08:12:38;797.15;;;442.83;;
7783;SDS011;19359;51.402;6.778;2023-08-08T08:15:05;781.85;;;426.50;;
7783;SDS011;19359;51.402;6.778;2023-08-08T08:17:34;788.75;;;431.65;;
7783;SDS011;19359;51.402;6.778;2023-08-08T08:20:02;783.90;;;429.80;;
7783;SDS011;19359;51.402;6.778;2023-08-08T08:22:30;781.55;;;423.30;;
7783;SDS011;19359;51.402;6.778;2023-08-08T08:24:57;777.17;;;423.13;;
7783;SDS011;19359;51.402;6.778;2023-08-08T08:27:24;804.20;;;454.58;;
7783;SDS011;19359;51.402;6.778;2023-08-08T08:29:51;805.72;;;453.05;;
7783;SDS011;19359;51.402;6.778;2023-08-08T08:32:18;782.50;;;445.20;;
7783;SDS011;19359;51.402;6.778;2023-08-08T08:34:46;791.80;;;452.23;;
7783;SDS011;19359;51.402;6.778;2023-08-08T08:37:13;788.00;;;440.65;;
7783;SDS011;19359;51.402;6.778;2023-08-08T08:39:40;782.67;;;440.30;;
7783;SDS011;19359;51.402;6.778;2023-08-08T08:42:07;783.55;;;440.90;;
7783;SDS011;19359;51.402;6.778;2023-08-08T08:44:39;785.47;;;438.27;;
7783;SDS011;19359;51.402;6.778;2023-08-08T08:47:07;806.67;;;459.33;;
7783;SDS011;19359;51.402;6.778;2023-08-08T08:49:37;786.08;;;445.20;;
7783;SDS011;19359;51.402;6.778;2023-08-08T08:52:06;784.10;;;450.23;;
7783;SDS011;19359;51.402;6.778;2023-08-08T08:54:33;783.42;;;446.13;;
7783;SDS011;19359;51.402;6.778;2023-08-08T08:57:00;787.92;;;459.58;;
7783;SDS011;19359;51.402;6.778;2023-08-08T08:59:27;782.53;;;447.13;;
7783;SDS011;19359;51.402;6.778;2023-08-08T09:01:55;778.55;;;450.10;;
7783;SDS011;19359;51.402;6.778;2023-08-08T09:04:22;797.50;;;468.73;;
7783;SDS011;19359;51.402;6.778;2023-08-08T09:06:50;778.25;;;449.63;;
7783;SDS011;19359;51.402;6.778;2023-08-08T09:09:18;792.03;;;464.95;;
7783;SDS011;19359;51.402;6.778;2023-08-08T09:11:48;777.13;;;458.02;;
7783;SDS011;19359;51.402;6.778;2023-08-08T09:14:16;788.75;;;477.40;;
7783;SDS011;19359;51.402;6.778;2023-08-08T09:16:43;780.70;;;458.13;;
7783;SDS011;19359;51.402;6.778;2023-08-08T09:19:11;791.50;;;488.02;;
7783;SDS011;19359;51.402;6.778;2023-08-08T09:21:38;787.13;;;472.73;;
7783;SDS011;19359;51.402;6.778;2023-08-08T09:24:04;824.63;;;518.03;;
7783;SDS011;19359;51.402;6.778;2023-08-08T09:26:33;797.80;;;483.67;;
7783;SDS011;19359;51.402;6.778;2023-08-08T09:29:00;784.42;;;482.70;;
7783;SDS011;19359;51.402;6.778;2023-08-08T09:31:27;797.58;;;501.35;;
7783;SDS011;19359;51.402;6.778;2023-08-08T09:33:56;804.88;;;504.10;;
7783;SDS011;19359;51.402;6.778;2023-08-08T09:36:23;791.22;;;480.40;;
7783;SDS011;19359;51.402;6.778;2023-08-08T09:38:50;787.47;;;484.60;;
7783;SDS011;19359;51.402;6.778;2023-08-08T09:41:18;802.13;;;494.02;;
7783;SDS011;19359;51.402;6.778;2023-08-08T09:43:46;787.92;;;468.50;;
7783;SDS011;19359;51.402;6.778;2023-08-08T09:46:13;782.65;;;470.35;;
7783;SDS011;19359;51.402;6.778;2023-08-08T09:48:41;793.72;;;485.50;;
7783;SDS011;19359;51.402;6.778;2023-08-08T09:51:09;779.67;;;465.88;;
7783;SDS011;19359;51.402;6.778;2023-08-08T09:53:36;795.92;;;495.55;;
7783;SDS011;19359;51.402;6.778;2023-08-08T09:56:05;787.80;;;479.65;;
7783;SDS011;19359;51.402;6.778;2023-08-08T09:58:32;793.83;;;493.42;;
7783;SDS011;19359;51.402;6.778;2023-08-08T10:01:01;801.70;;;493.33;;
7783;SDS011;19359;51.402;6.778;2023-08-08T10:03:29;794.95;;;494.52;;
7783;SDS011;19359;51.402;6.778;2023-08-08T10:05:58;788.63;;;495.25;;
7783;SDS011;19359;51.402;6.778;2023-08-08T10:08:25;779.92;;;469.70;;
7783;SDS011;19359;51.402;6.778;2023-08-08T10:10:52;776.45;;;465.80;;
7783;SDS011;19359;51.402;6.778;2023-08-08T10:13:19;794.05;;;492.95;;
7783;SDS011;19359;51.402;6.778;2023-08-08T10:15:47;796.05;;;494.98;;
7783;SDS011;19359;51.402;6.778;2023-08-08T10:18:15;794.60;;;505.48;;
7783;SDS011;19359;51.402;6.778;2023-08-08T10:20:42;791.92;;;499.85;;
7783;SDS011;19359;51.402;6.778;2023-08-08T10:23:09;807.97;;;517.97;;
7783;SDS011;19359;51.402;6.778;2023-08-08T10:25:36;797.13;;;505.13;;
7783;SDS011;19359;51.402;6.778;2023-08-08T10:28:04;803.65;;;523.83;;
7783;SDS011;19359;51.402;6.778;2023-08-08T10:30:41;798.33;;;510.15;;
7783;SDS011;19359;51.402;6.778;2023-08-08T10:33:16;796.67;;;498.05;;
7783;SDS011;19359;51.402;6.778;2023-08-08T10:35:50;795.40;;;501.23;;
7783;SDS011;19359;51.402;6.778;2023-08-08T10:38:23;789.88;;;494.80;;
7783;SDS011;19359;51.402;6.778;2023-08-08T10:40:53;804.05;;;508.52;;
7783;SDS011;19359;51.402;6.778;2023-08-08T10:43:24;805.22;;;511.23;;
7783;SDS011;19359;51.402;6.778;2023-08-08T10:45:53;799.25;;;504.10;;
7783;SDS011;19359;51.402;6.778;2023-08-08T10:48:24;799.10;;;512.65;;
7783;SDS011;19359;51.402;6.778;2023-08-08T10:50:53;798.88;;;514.22;;
7783;SDS011;19359;51.402;6.778;2023-08-08T10:53:22;799.53;;;504.98;;
7783;SDS011;19359;51.402;6.778;2023-08-08T10:55:56;791.30;;;502.67;;
7783;SDS011;19359;51.402;6.778;2023-08-08T10:58:33;797.60;;;494.13;;
7783;SDS011;19359;51.402;6.778;2023-08-08T11:01:01;794.13;;;493.95;;
7783;SDS011;19359;51.402;6.778;2023-08-08T11:03:31;790.40;;;484.80;;
7783;SDS011;19359;51.402;6.778;2023-08-08T11:05:59;795.83;;;482.40;;
7783;SDS011;19359;51.402;6.778;2023-08-08T11:08:28;790.80;;;483.80;;
7783;SDS011;19359;51.402;6.778;2023-08-08T11:10:56;791.08;;;476.42;;
7783;SDS011;19359;51.402;6.778;2023-08-08T11:13:23;786.10;;;472.38;;
7783;SDS011;19359;51.402;6.778;2023-08-08T11:15:50;779.55;;;474.55;;
7783;SDS011;19359;51.402;6.778;2023-08-08T11:18:17;773.83;;;470.83;;
7783;SDS011;19359;51.402;6.778;2023-08-08T11:20:45;785.08;;;478.25;;
7783;SDS011;19359;51.402;6.778;2023-08-08T11:23:13;802.60;;;502.45;;
7783;SDS011;19359;51.402;6.778;2023-08-08T11:25:40;780.13;;;486.80;;
7783;SDS011;19359;51.402;6.778;2023-08-08T11:28:08;807.22;;;505.42;;
7783;SDS011;19359;51.402;6.778;2023-08-08T11:30:37;787.72;;;502.63;;
7783;SDS011;19359;51.402;6.778;2023-08-08T11:33:05;792.13;;;494.30;;
7783;SDS011;19359;51.402;6.778;2023-08-08T11:35:32;786.10;;;509.02;;
7783;SDS011;19359;51.402;6.778;2023-08-08T11:38:02;789.88;;;499.95;;
7783;SDS011;19359;51.402;6.778;2023-08-08T11:40:30;790.78;;;513.45;;
7783;SDS011;19359;51.402;6.778;2023-08-08T11:42:58;808.05;;;533.92;;
7783;SDS011;19359;51.402;6.778;2023-08-08T11:45:25;798.75;;;513.95;;
7783;SDS011;19359;51.402;6.778;2023-08-08T11:47:53;792.97;;;519.28;;
7783;SDS011;19359;51.402;6.778;2023-08-08T11:50:21;792.58;;;504.20;;
7783;SDS011;19359;51.402;6.778;2023-08-08T11:52:50;786.50;;;503.77;;
7783;SDS011;19359;51.402;6.778;2023-08-08T11:55:19;786.28;;;494.05;;
7783;SDS011;19359;51.402;6.778;2023-08-08T11:57:48;787.65;;;502.73;;
7783;SDS011;19359;51.402;6.778;2023-08-08T12:00:15;786.80;;;502.23;;
7783;SDS011;19359;51.402;6.778;2023-08-08T12:02:44;799.75;;;529.22;;
7783;SDS011;19359;51.402;6.778;2023-08-08T12:05:12;797.42;;;526.50;;
7783;SDS011;19359;51.402;6.778;2023-08-08T12:07:42;810.17;;;540.95;;
7783;SDS011;19359;51.402;6.778;2023-08-08T12:10:14;797.70;;;529.60;;
7783;SDS011;19359;51.402;6.778;2023-08-08T12:12:43;804.13;;;537.05;;
7783;SDS011;19359;51.402;6.778;2023-08-08T12:15:10;800.30;;;529.67;;
7783;SDS011;19359;51.402;6.778;2023-08-08T12:17:38;803.63;;;518.28;;
7783;SDS011;19359;51.402;6.778;2023-08-08T12:20:06;798.92;;;529.72;;
7783;SDS011;19359;51.402;6.778;2023-08-08T12:22:34;796.00;;;523.35;;
7783;SDS011;19359;51.402;6.778;2023-08-08T12:25:02;801.65;;;530.70;;
7783;SDS011;19359;51.402;6.778;2023-08-08T12:27:29;795.47;;;533.53;;
7783;SDS011;19359;51.402;6.778;2023-08-08T12:29:58;796.08;;;540.85;;
7783;SDS011;19359;51.402;6.778;2023-08-08T12:32:25;812.67;;;557.88;;
7783;SDS011;19359;51.402;6.778;2023-08-08T12:34:54;816.00;;;555.85;;
7783;SDS011;19359;51.402;6.778;2023-08-08T12:37:21;798.30;;;545.30;;
7783;SDS011;19359;51.402;6.778;2023-08-08T12:39:49;790.00;;;541.28;;
7783;SDS011;19359;51.402;6.778;2023-08-08T12:42:16;795.28;;;548.88;;
7783;SDS011;19359;51.402;6.778;2023-08-08T12:44:43;797.70;;;560.75;;
7783;SDS011;19359;51.402;6.778;2023-08-08T12:47:13;798.53;;;556.75;;
7783;SDS011;19359;51.402;6.778;2023-08-08T12:49:40;804.90;;;568.90;;
7783;SDS011;19359;51.402;6.778;2023-08-08T12:52:07;787.25;;;549.83;;
7783;SDS011;19359;51.402;6.778;2023-08-08T12:54:34;746.10;;;611.22;;
7783;SDS011;19359;51.402;6.778;2023-08-08T12:57:01;736.13;;;622.85;;
7783;SDS011;19359;51.402;6.778;2023-08-08T12:59:28;728.17;;;632.25;;
7783;SDS011;19359;51.402;6.778;2023-08-08T13:01:54;710.15;;;631.13;;
7783;SDS011;19359;51.402;6.778;2023-08-08T13:04:23;758.95;;;628.55;;
7783;SDS011;19359;51.402;6.778;2023-08-08T13:06:50;763.75;;;638.05;;
7783;SDS011;19359;51.402;6.778;2023-08-08T13:09:17;722.85;;;642.53;;
7783;SDS011;19359;51.402;6.778;2023-08-08T13:11:43;781.45;;;657.60;;
7783;SDS011;19359;51.402;6.778;2023-08-08T13:14:10;819.42;;;681.70;;
7783;SDS011;19359;51.402;6.778;2023-08-08T13:16:37;769.65;;;678.13;;
7783;SDS011;19359;51.402;6.778;2023-08-08T13:19:04;778.50;;;679.30;;
7783;SDS011;19359;51.402;6.778;2023-08-08T13:21:33;783.67;;;683.63;;
7783;SDS011;19359;51.402;6.778;2023-08-08T13:23:59;792.75;;;692.80;;
7783;SDS011;19359;51.402;6.778;2023-08-08T13:26:26;829.40;;;701.38;;
7783;SDS011;19359;51.402;6.778;2023-08-08T13:28:54;771.03;;;685.33;;
7783;SDS011;19359;51.402;6.778;2023-08-08T13:31:21;750.92;;;669.40;;
7783;SDS011;19359;51.402;6.778;2023-08-08T13:33:48;745.47;;;663.78;;
7783;SDS011;19359;51.402;6.778;2023-08-08T13:36:15;722.80;;;644.55;;
7783;SDS011;19359;51.402;6.778;2023-08-08T13:38:43;763.13;;;657.13;;
7783;SDS011;19359;51.402;6.778;2023-08-08T13:41:10;721.35;;;627.97;;
7783;SDS011;19359;51.402;6.778;2023-08-08T13:43:36;735.38;;;635.15;;
7783;SDS011;19359;51.402;6.778;2023-08-08T13:46:04;756.80;;;616.90;;
7783;SDS011;19359;51.402;6.778;2023-08-08T13:48:32;699.65;;;612.42;;
7783;SDS011;19359;51.402;6.778;2023-08-08T13:51:00;746.30;;;612.65;;
7783;SDS011;19359;51.402;6.778;2023-08-08T13:53:27;736.13;;;612.83;;
7783;SDS011;19359;51.402;6.778;2023-08-08T13:55:56;706.22;;;600.03;;
7783;SDS011;19359;51.402;6.778;2023-08-08T13:58:23;693.70;;;600.47;;
7783;SDS011;19359;51.402;6.778;2023-08-08T14:00:50;687.67;;;595.92;;
7783;SDS011;19359;51.402;6.778;2023-08-08T14:03:17;732.70;;;611.20;;
7783;SDS011;19359;51.402;6.778;2023-08-08T14:05:44;718.95;;;609.20;;
7783;SDS011;19359;51.402;6.778;2023-08-08T14:08:11;704.63;;;618.65;;
7783;SDS011;19359;51.402;6.778;2023-08-08T14:10:38;706.05;;;628.67;;